Decoded Metar for PAEN (KENAI in AK, USA) (IATA:ENA) | Meteo·Mobile Aviation Weather
aviador You're here:

PAEN Decoded Metar

KENAI in AK, USA
Report Time2019-05-25 20:53:00
UTC Time2019-05-25 21:18:00
Flight Rules vfr VFR
Wind010° at 03 kt
W.Decomp.*RWY 01: 2.8 kt HW 1 kt LCW
Visibility9999 m
Phenomena:Light Rain
Clouds:Scattered 045 Hf
Overcast 050 Hf
Expected CloudBase > 1,600 ft AGL from Temp-Dew spread
Ceiling5,000 ft
Temp10°C (ISA -5)
Dew Point06°C (76% RH)
AAT8.0°C
QNH1018 hPa
Density Alt-531 ft
Elevation89 ft
Report Wrong Elevation
Raw Report
PAEN 252053Z 01003KT 10SM -RA SCT045 OVC050 10/06 A3006=

Extra information for PAEN:More info

Metar Taf Metar & Taf Last 4 Metars F.Rules Stats Wind Profile Meteogram Temp Stats Airport Information Weather charts Add Link Nearby VenuesMetar ALERT Operation Metar Decoded Social comments

AIRNAV info for PAEN